KHQZ

Mesquite Metro Airport

Mesquite, Texas, USA
METAR KHQZ 140815Z AUTO 34008G14KT 10SM OVC012 08/06 A2981 RMK AO1 T00750056
Observed Flight Rules
Dec-14 @ 08:15 UTC (13 minutes ago) Marginal Visual Flight Rules
Wind Visibility Clouds
340° at 8 knots
 Gusting to 14 knots
10 miles
  • Overcast at 1,200' AGL
Temperatures Readings
Current 8°C / 46°F
Dewpoint 6°C / 43°F
Humidity 87%
Altimeter 29.81" Hg
Pressure 1009 hPa
Elevation 136
METAR KHQZ 140815Z AUTO 34008G14KT 10SM OVC012 08/06 A2981 RMK AO1 T00750056
Observed Flight Rules
Dec-14 @ 08:15 UTC
(13 minutes ago)
MVFR
Wind Visibility
340° at 8 knots
 Gusting to 14 knots
10 miles
Clouds
  • Overcast at 1,200' AGL
Temperature Dewpoint
8°C / 46°F 6°C / 43°F
Humidity Altimeter Pressure
87% 29.81" Hg 1009 hPa